Time;durP1;ratioP1;P1;durP2;ratioP2;P2;SDS_P1;SDS_P2;PMS_P1;PMS_P2;Temp;Humidity;BMP_temperature;BMP_pressure;BME280_temperature;BME280_humidity;BME280_pressure;Samples;Min_cycle;Max_cycle;Signal;HPM_P1;HPM_P2
2022/06/07 00:02:06;;;;;;;10.00;4.80;;;;;;;12.50;100.00;101302.66;5017172;28;20116;-68
2022/06/07 00:04:32;;;;;;;7.75;4.45;;;;;;;12.50;100.00;101302.66;5033929;28;20087;-68
2022/06/07 00:06:58;;;;;;;8.18;4.88;;;;;;;12.46;100.00;101299.28;5034081;28;20481;-68
2022/06/07 00:09:23;;;;;;;7.30;4.20;;;;;;;12.46;100.00;101301.09;5034576;28;20075;-68
2022/06/07 00:11:48;;;;;;;9.43;4.72;;;;;;;12.47;100.00;101294.84;5034395;28;20017;-68
2022/06/07 00:14:14;;;;;;;7.55;4.65;;;;;;;12.45;100.00;101300.25;5034046;28;20037;-68
2022/06/07 00:16:39;;;;;;;10.35;4.68;;;;;;;12.50;100.00;101296.50;5015999;28;20560;-68
2022/06/07 00:19:05;;;;;;;10.55;5.40;;;;;;;12.49;100.00;101292.97;5034045;28;20037;-69
2022/06/07 00:21:30;;;;;;;8.82;4.50;;;;;;;12.51;100.00;101293.78;5034072;28;20036;-69
2022/06/07 00:23:59;;;;;;;8.27;4.80;;;;;;;12.51;100.00;101292.94;5034039;28;20026;-70
2022/06/07 00:26:24;;;;;;;7.07;4.50;;;;;;;12.55;100.00;101287.38;5033574;28;20034;-70
2022/06/07 00:28:50;;;;;;;6.45;4.38;;;;;;;12.57;100.00;101282.00;5033612;28;20053;-70
2022/06/07 00:31:15;;;;;;;9.70;4.55;;;;;;;12.56;100.00;101274.97;5016710;28;20080;-70
2022/06/07 00:33:41;;;;;;;7.13;4.75;;;;;;;12.56;100.00;101274.97;4999881;28;20030;-70
2022/06/07 00:36:08;;;;;;;9.00;5.50;;;;;;;12.56;100.00;101270.50;5033440;28;20038;-70
2022/06/07 00:38:34;;;;;;;7.50;4.95;;;;;;;12.54;100.00;101276.84;5033607;28;20044;-71
2022/06/07 00:40:59;;;;;;;7.60;5.63;;;;;;;12.55;100.00;101275.91;5017026;28;20487;-71
2022/06/07 00:43:25;;;;;;;8.93;5.40;;;;;;;12.57;100.00;101274.03;5033451;28;20461;-71
2022/06/07 00:45:50;;;;;;;8.20;5.65;;;;;;;12.59;100.00;101273.00;5033495;28;20029;-70
2022/06/07 00:48:19;;;;;;;9.23;5.50;;;;;;;12.61;100.00;101272.97;5033311;28;20108;-70
2022/06/07 00:50:52;;;;;;;12.02;5.38;;;;;;;12.60;100.00;101261.47;5016443;28;20053;-70
2022/06/07 00:53:28;;;;;;;11.75;5.80;;;;;;;12.62;100.00;101262.25;5033293;28;20083;-69
2022/06/07 00:55:54;;;;;;;9.20;5.03;;;;;;;12.66;100.00;101259.44;5033324;28;20060;-68
2022/06/07 00:58:21;;;;;;;8.13;5.30;;;;;;;12.67;100.00;101251.41;5033357;28;20026;-69
2022/06/07 01:00:47;;;;;;;7.38;5.55;;;;;;;12.67;100.00;101254.06;5033521;28;20025;-69
2022/06/07 01:03:13;;;;;;;9.15;5.47;;;;;;;12.70;100.00;101255.72;5033283;28;20031;-68
2022/06/07 01:05:38;;;;;;;9.32;5.38;;;;;;;12.74;100.00;101249.34;5015297;28;20029;-69
2022/06/07 01:10:51;;;;;;;8.35;5.97;;;;;;;12.75;100.00;101243.94;5033557;28;20099;-69
2022/06/07 01:13:20;;;;;;;9.23;5.55;;;;;;;12.75;100.00;101243.94;5033166;28;20056;-69
2022/06/07 01:15:46;;;;;;;8.30;6.13;;;;;;;12.75;100.00;101243.94;5033249;28;20096;-70
2022/06/07 01:18:13;;;;;;;8.68;6.30;;;;;;;12.76;100.00;101245.69;5033255;28;20168;-69
2022/06/07 01:20:39;;;;;;;9.27;5.88;;;;;;;12.78;100.00;101245.59;5032667;28;20123;-69
2022/06/07 01:23:05;;;;;;;9.30;5.85;;;;;;;12.78;100.00;101245.59;5032689;28;20040;-68
2022/06/07 01:25:31;;;;;;;11.23;6.13;;;;;;;12.79;100.00;101248.19;5032577;28;20037;-69
2022/06/07 01:27:56;;;;;;;9.48;6.28;;;;;;;12.79;100.00;101244.66;5032922;28;20404;-69
2022/06/07 01:30:22;;;;;;;9.25;6.30;;;;;;;12.79;100.00;101237.53;5032672;28;20037;-69
2022/06/07 01:32:47;;;;;;;11.48;6.05;;;;;;;12.82;100.00;101233.88;5014268;28;20049;-68
2022/06/07 01:35:13;;;;;;;9.70;6.20;;;;;;;12.82;100.00;101243.66;5014793;28;20045;-68
2022/06/07 01:37:38;;;;;;;9.38;5.93;;;;;;;12.82;100.00;101243.66;4982535;28;20507;-68
2022/06/07 01:42:49;;;;;;;9.40;6.07;;;;;;;12.82;100.00;101238.34;5032767;28;20053;-69
2022/06/07 01:45:15;;;;;;;9.15;6.05;;;;;;;12.84;100.00;101228.47;5032306;28;20021;-68
2022/06/07 01:47:41;;;;;;;8.13;6.18;;;;;;;12.82;100.00;101233.88;5032503;28;20444;-69
2022/06/07 01:50:08;;;;;;;11.98;7.00;;;;;;;12.82;100.00;101215.28;5032037;28;20464;-69
2022/06/07 01:52:35;;;;;;;8.27;5.60;;;;;;;12.81;100.00;101220.66;5032416;28;20040;-68
2022/06/07 01:55:01;;;;;;;10.60;5.95;;;;;;;12.81;100.00;101218.00;5032178;28;20064;-69
2022/06/07 01:57:28;;;;;;;9.77;6.50;;;;;;;12.78;100.00;101219.03;5032047;28;20438;-69
2022/06/07 01:59:54;;;;;;;10.10;6.72;;;;;;;12.79;100.00;101232.22;5032238;28;20028;-69
2022/06/07 02:02:22;;;;;;;9.38;6.75;;;;;;;12.78;100.00;101232.31;5011107;28;20117;-68
2022/06/07 02:04:48;;;;;;;8.88;6.28;;;;;;;12.76;100.00;101226.19;5012765;28;20028;-69
2022/06/07 02:07:14;;;;;;;8.48;6.05;;;;;;;12.75;100.00;101219.19;5005257;28;20033;-68
2022/06/07 02:09:39;;;;;;;8.23;6.15;;;;;;;12.77;100.00;101226.16;5032222;28;20033;-68
2022/06/07 02:12:05;;;;;;;11.05;6.68;;;;;;;12.74;100.00;101206.81;5034045;28;20029;-69
2022/06/07 02:14:31;;;;;;;10.07;6.47;;;;;;;12.76;100.00;101212.91;5031561;28;20033;-68
2022/06/07 02:16:56;;;;;;;11.02;7.15;;;;;;;12.72;100.00;101217.50;5031521;28;20478;-68
2022/06/07 02:19:22;;;;;;;10.40;6.50;;;;;;;12.72;100.00;101219.31;5014305;28;20052;-68
2022/06/07 02:21:47;;;;;;;12.50;6.75;;;;;;;12.68;100.00;101217.75;5013969;28;20508;-67
2022/06/07 02:24:13;;;;;;;10.70;6.50;;;;;;;12.70;100.00;101202.56;5032373;28;20079;-68
2022/06/07 02:26:43;;;;;;;10.25;6.97;;;;;;;12.69;100.00;101215.00;5014209;28;20116;-69
2022/06/07 02:29:15;;;;;;;11.75;7.05;;;;;;;12.66;100.00;101217.81;5017097;28;20112;-68
2022/06/07 02:31:49;;;;;;;10.73;6.85;;;;;;;12.66;100.00;101217.81;5017976;28;20457;-68
2022/06/07 02:34:18;;;;;;;9.73;6.28;;;;;;;12.69;100.00;101212.34;5031893;28;20072;-68
2022/06/07 02:36:47;;;;;;;11.73;6.72;;;;;;;12.69;100.00;101212.34;5031861;28;20029;-68
2022/06/07 02:39:13;;;;;;;10.48;6.40;;;;;;;12.67;100.00;101216.84;5013831;28;20503;-71
2022/06/07 02:41:41;;;;;;;10.93;6.50;;;;;;;12.64;100.00;101201.06;5031540;28;20057;-68
2022/06/07 02:44:06;;;;;;;7.90;5.63;;;;;;;12.67;100.00;101210.69;5030673;28;20124;-69
2022/06/07 02:46:32;;;;;;;9.98;5.53;;;;;;;12.67;100.00;101200.06;5031554;28;20412;-68
2022/06/07 02:48:57;;;;;;;9.55;6.25;;;;;;;12.66;100.00;101201.00;5030811;28;20543;-68
2022/06/07 02:51:22;;;;;;;11.38;6.20;;;;;;;12.67;100.00;101194.75;5031544;28;20021;-68
2022/06/07 02:53:48;;;;;;;7.90;5.95;;;;;;;12.68;100.00;101196.47;5013566;28;20611;-68
2022/06/07 02:56:13;;;;;;;8.00;5.60;;;;;;;12.69;100.00;101195.56;4981320;28;20052;-68
2022/06/07 02:58:39;;;;;;;9.93;5.80;;;;;;;12.67;100.00;101200.06;5031292;28;20025;-68
2022/06/07 03:01:04;;;;;;;12.27;6.20;;;;;;;12.65;100.00;101201.94;5031427;28;20495;-68
2022/06/07 03:03:29;;;;;;;8.93;5.93;;;;;;;12.63;100.00;101194.03;5030923;28;20045;-68
2022/06/07 03:05:56;;;;;;;9.05;5.82;;;;;;;12.67;100.00;101202.72;4997286;28;20033;-68
2022/06/07 03:08:22;;;;;;;9.82;6.20;;;;;;;12.64;100.00;101201.06;5014004;28;20029;-69
2022/06/07 03:10:49;;;;;;;10.20;5.60;;;;;;;12.65;100.00;101196.59;5031228;28;20033;-69
2022/06/07 03:13:15;;;;;;;8.40;5.32;;;;;;;12.64;100.00;101205.53;5031277;28;20504;-68
2022/06/07 03:15:41;;;;;;;9.98;5.05;;;;;;;12.65;100.00;101196.59;5031440;28;20021;-68
2022/06/07 03:18:08;;;;;;;10.65;5.85;;;;;;;12.66;100.00;101198.34;5031247;28;20129;-68
2022/06/07 03:20:34;;;;;;;7.90;5.63;;;;;;;12.66;100.00;101198.34;5031113;28;20037;-69
2022/06/07 03:22:59;;;;;;;8.50;5.97;;;;;;;12.68;100.00;101193.81;5031238;28;20035;-69
2022/06/07 03:25:25;;;;;;;9.52;6.28;;;;;;;12.68;100.00;101202.66;5013613;28;20021;-69
2022/06/07 03:27:51;;;;;;;12.38;6.18;;;;;;;12.68;100.00;101204.44;5030534;28;20033;-69
2022/06/07 03:30:17;;;;;;;8.57;5.60;;;;;;;12.65;100.00;101205.47;5031131;28;20053;-68
2022/06/07 03:32:43;;;;;;;10.68;5.80;;;;;;;12.70;100.00;101200.78;5031226;28;20038;-69
2022/06/07 03:35:09;;;;;;;9.95;6.10;;;;;;;12.73;100.00;101207.75;5031035;28;20159;-68
2022/06/07 03:37:36;;;;;;;9.57;6.07;;;;;;;12.75;100.00;101212.06;5030915;28;20112;-68
2022/06/07 03:40:03;;;;;;;8.80;5.50;;;;;;;12.78;100.00;101211.91;5030989;28;20033;-69
2022/06/07 03:42:29;;;;;;;9.10;5.40;;;;;;;12.78;100.00;101216.38;5030148;28;20037;-68
2022/06/07 03:44:54;;;;;;;11.20;5.88;;;;;;;12.80;100.00;101209.19;5030553;28;20440;-69
2022/06/07 03:47:20;;;;;;;10.35;5.60;;;;;;;12.82;100.00;101220.59;5030590;28;20034;-68
2022/06/07 03:49:46;;;;;;;8.65;5.43;;;;;;;12.88;100.00;101208.81;5031166;28;20491;-68
2022/06/07 03:52:12;;;;;;;8.25;5.50;;;;;;;12.89;100.00;101218.47;5030764;28;20088;-68
2022/06/07 03:54:38;;;;;;;7.43;5.15;;;;;;;12.88;100.00;101220.28;5031089;28;20320;-69
2022/06/07 03:57:04;;;;;;;11.10;5.70;;;;;;;12.88;100.00;101227.41;5016478;28;20381;-69
2022/06/07 03:59:30;;;;;;;9.55;5.38;;;;;;;12.90;100.00;101220.22;5034443;28;20488;-68
2022/06/07 04:01:56;;;;;;;10.63;6.03;;;;;;;12.92;100.00;101215.69;5033854;28;20052;-68
2022/06/07 04:04:21;;;;;;;9.27;6.05;;;;;;;12.90;100.00;101230.84;5034181;28;20029;-69
2022/06/07 04:09:39;;;;;;;8.68;5.57;;;;;;;12.91;100.00;101220.13;5034665;28;20094;-68
2022/06/07 04:12:06;;;;;;;8.20;5.45;;;;;;;12.97;100.00;101226.09;5035751;28;20056;-67
2022/06/07 04:14:31;;;;;;;7.57;5.82;;;;;;;12.99;100.00;101226.88;5034190;28;20033;-66
2022/06/07 04:16:57;;;;;;;11.13;6.15;;;;;;;13.00;100.00;101217.97;5033743;28;20608;-68
2022/06/07 04:19:22;;;;;;;8.82;5.45;;;;;;;13.04;100.00;101227.53;5016661;28;20553;-68
2022/06/07 04:21:47;;;;;;;10.73;6.35;;;;;;;13.09;100.00;101228.16;5034275;28;20025;-68
2022/06/07 04:24:13;;;;;;;10.30;6.55;;;;;;;13.10;100.00;101232.53;5033651;28;20040;-68
2022/06/07 04:26:38;;;;;;;8.65;5.55;;;;;;;13.16;100.00;101228.72;5033438;28;20033;-68
2022/06/07 04:29:03;;;;;;;10.40;5.32;;;;;;;13.17;100.00;101233.09;5033974;28;20064;-68
2022/06/07 04:31:29;;;;;;;11.23;5.88;;;;;;;13.21;100.00;101226.69;5034104;28;20026;-67
2022/06/07 04:33:56;;;;;;;7.65;5.60;;;;;;;13.22;100.00;101233.72;5025785;28;20040;-67
2022/06/07 04:36:23;;;;;;;9.38;5.57;;;;;;;13.26;100.00;101232.63;5033570;28;20030;-67
2022/06/07 04:38:50;;;;;;;9.23;5.88;;;;;;;13.34;100.00;101233.13;5033540;28;20113;-67
2022/06/07 04:41:20;;;;;;;9.63;5.80;;;;;;;13.43;100.00;101230.03;5033978;28;20496;-68
2022/06/07 04:43:49;;;;;;;8.82;5.30;;;;;;;13.52;100.00;101239.34;5015620;28;20076;-68
2022/06/07 04:46:15;;;;;;;9.18;5.72;;;;;;;13.58;100.00;101239.03;5015427;28;20025;-69
2022/06/07 04:48:43;;;;;;;9.98;6.53;;;;;;;13.63;100.00;101245.91;5013764;28;20025;-69
2022/06/07 04:51:32;;;;;;;10.27;5.93;;;;;;;13.68;100.00;101233.22;5016654;28;20121;-69
2022/06/07 04:53:59;;;;;;;8.73;5.57;;;;;;;13.70;100.00;101244.66;5033183;28;20080;-68
2022/06/07 04:56:27;;;;;;;10.98;6.05;;;;;;;13.76;100.00;101237.22;5027433;28;20108;-68
2022/06/07 04:58:53;;;;;;;10.82;5.97;;;;;;;13.81;100.00;101247.63;5032968;28;20033;-69
2022/06/07 05:01:22;;;;;;;9.88;5.97;;;;;;;13.84;100.00;101249.28;5033627;28;20025;-69
2022/06/07 05:03:48;;;;;;;12.32;5.75;;;;;;;13.84;100.00;101250.13;5015736;28;20017;-69
2022/06/07 05:06:26;;;;;;;9.82;6.38;;;;;;;13.87;100.00;101251.78;4995629;28;20038;-69
2022/06/07 05:08:56;;;;;;;10.90;6.75;;;;;;;13.89;100.00;101247.25;5034159;28;20397;-67
2022/06/07 05:11:22;;;;;;;10.38;6.10;;;;;;;13.94;100.00;101239.88;5032774;28;20032;-69
2022/06/07 05:13:47;;;;;;;14.90;6.00;;;;;;;14.01;100.00;101238.59;5032086;28;20033;-68
2022/06/07 05:16:13;;;;;;;9.38;5.72;;;;;;;14.19;100.00;101250.06;5032688;28;20025;-68
2022/06/07 05:18:39;;;;;;;9.13;5.88;;;;;;;14.33;100.00;101251.97;5014900;28;20485;-69
2022/06/07 05:21:06;;;;;;;10.02;6.80;;;;;;;14.36;100.00;101250.97;5033096;28;20480;-68
2022/06/07 05:23:32;;;;;;;11.20;6.22;;;;;;;14.55;100.00;101257.03;5033106;28;20017;-68
2022/06/07 05:26:07;;;;;;;11.02;6.40;;;;;;;14.68;100.00;101257.25;5032674;28;20025;-69
2022/06/07 05:28:33;;;;;;;10.02;5.50;;;;;;;14.69;100.00;101252.75;5014667;28;20029;-68
2022/06/07 05:30:59;;;;;;;8.88;5.88;;;;;;;14.53;100.00;101253.56;5032624;28;20037;-68
2022/06/07 05:33:24;;;;;;;10.65;5.63;;;;;;;14.56;100.00;101241.88;5033055;28;20374;-68
2022/06/07 05:35:49;;;;;;;9.45;5.80;;;;;;;14.50;100.00;101247.53;5032524;28;20079;-68
2022/06/07 05:38:16;;;;;;;10.43;5.90;;;;;;;14.52;100.00;101248.34;5014654;28;20029;-68
2022/06/07 05:40:41;;;;;;;10.63;6.20;;;;;;;14.49;99.92;101252.03;5036173;28;20040;-68
2022/06/07 05:43:07;;;;;;;12.57;6.53;;;;;;;14.47;100.00;101255.72;5032208;28;20057;-68
2022/06/07 05:45:32;;;;;;;8.80;5.85;;;;;;;14.41;100.00;101254.22;5032610;28;20029;-68
2022/06/07 05:47:58;;;;;;;9.35;5.97;;;;;;;14.51;100.00;101251.94;5032057;28;20497;-68
2022/06/07 05:50:25;;;;;;;13.57;6.03;;;;;;;14.52;99.79;101257.16;5031861;28;20030;-68
2022/06/07 05:52:51;;;;;;;9.05;5.95;;;;;;;14.54;99.65;101259.75;5032184;28;20104;-68
2022/06/07 05:55:16;;;;;;;12.40;6.65;;;;;;;14.54;100.00;101262.41;5032532;28;20116;-68
2022/06/07 05:57:44;;;;;;;13.75;6.15;;;;;;;14.60;100.00;101262.06;5013942;28;20489;-67
2022/06/07 06:00:10;;;;;;;10.52;6.07;;;;;;;14.69;100.00;101266.06;5013897;28;20036;-68
2022/06/07 06:02:36;;;;;;;10.85;5.53;;;;;;;14.84;99.43;101265.22;4997927;28;20033;-68
2022/06/07 06:05:01;;;;;;;11.45;6.05;;;;;;;14.85;99.16;101272.28;5032050;28;20029;-69
2022/06/07 06:07:28;;;;;;;11.68;6.53;;;;;;;14.94;99.60;101272.72;5032004;28;20029;-68
2022/06/07 06:12:37;;;;;;;9.25;5.80;;;;;;;14.95;98.42;101259.31;5024896;28;20122;-68
2022/06/07 06:15:03;;;;;;;12.13;6.10;;;;;;;14.91;98.67;101269.28;5018250;28;20033;-68
2022/06/07 06:17:28;;;;;;;15.85;6.47;;;;;;;14.85;96.96;101274.94;5008100;28;20040;-68
2022/06/07 06:19:54;;;;;;;10.48;5.65;;;;;;;14.86;97.89;101270.47;5026168;28;20048;-67
2022/06/07 06:22:19;;;;;;;14.10;6.35;;;;;;;15.04;97.76;101273.94;5032018;28;20048;-68
2022/06/07 06:24:45;;;;;;;12.07;6.10;;;;;;;15.15;97.17;101265.28;5032073;28;20013;-68
2022/06/07 06:27:10;;;;;;;9.20;5.60;;;;;;;15.17;95.42;101263.41;5013927;28;20060;-66
2022/06/07 06:29:36;;;;;;;9.70;5.88;;;;;;;15.21;95.23;101270.28;5030065;28;20026;-66
2022/06/07 06:32:01;;;;;;;10.48;5.80;;;;;;;15.28;94.94;101276.13;5031502;28;20037;-67
2022/06/07 06:34:29;;;;;;;11.05;6.05;;;;;;;15.39;95.24;101266.53;5031658;28;20026;-66
2022/06/07 06:36:56;;;;;;;11.35;5.63;;;;;;;15.60;94.49;101276.03;5031546;28;20074;-69
2022/06/07 06:39:22;;;;;;;11.02;5.68;;;;;;;15.79;93.20;101267.81;5031234;28;20030;-68
2022/06/07 06:41:48;;;;;;;9.98;5.90;;;;;;;15.69;91.44;101276.38;5030629;28;20029;-68
2022/06/07 06:44:13;;;;;;;11.00;6.25;;;;;;;15.75;92.35;101274.28;5021993;28;20080;-69
2022/06/07 06:46:42;;;;;;;10.25;5.93;;;;;;;15.67;92.66;101277.41;5004979;28;20179;-67
2022/06/07 06:49:08;;;;;;;10.40;6.10;;;;;;;15.84;92.37;101277.31;5030475;28;20034;-68
2022/06/07 06:51:35;;;;;;;10.90;6.22;;;;;;;15.81;91.87;101277.47;5011255;28;20026;-68
2022/06/07 06:54:02;;;;;;;13.43;6.30;;;;;;;15.68;90.93;101276.47;5030571;28;20036;-68
2022/06/07 06:56:30;;;;;;;10.65;6.13;;;;;;;15.43;91.96;101282.38;5013429;28;20017;-68
2022/06/07 06:58:55;;;;;;;9.73;5.88;;;;;;;15.47;92.94;101283.91;5030271;28;20075;-68
2022/06/07 07:01:26;;;;;;;9.60;5.80;;;;;;;15.47;93.19;101283.91;5012768;28;20041;-69
2022/06/07 07:03:51;;;;;;;8.50;5.67;;;;;;;15.45;92.69;101294.69;5029160;28;20032;-69
2022/06/07 07:06:18;;;;;;;11.57;6.65;;;;;;;15.54;92.97;101287.97;5042673;28;20017;-69
2022/06/07 07:08:45;;;;;;;10.70;5.75;;;;;;;15.61;92.87;101283.97;5032616;28;20033;-69
2022/06/07 07:11:19;;;;;;;11.98;6.22;;;;;;;15.81;92.83;101282.81;5035380;28;20400;-69
2022/06/07 07:13:47;;;;;;;10.60;5.75;;;;;;;15.78;90.56;101292.78;5030888;28;20033;-69
2022/06/07 07:16:16;;;;;;;10.35;5.78;;;;;;;15.73;91.61;101282.41;5025923;28;20115;-68
2022/06/07 07:18:43;;;;;;;9.30;5.65;;;;;;;16.02;89.00;101274.44;5031227;28;20034;-68
2022/06/07 07:21:13;;;;;;;8.27;5.82;;;;;;;16.06;89.33;101281.31;5033321;28;20112;-69
2022/06/07 07:23:38;;;;;;;11.43;6.13;;;;;;;16.29;88.81;101282.59;5030473;28;20032;-68
2022/06/07 07:26:07;;;;;;;11.10;6.00;;;;;;;16.26;89.39;101282.78;5006255;28;20034;-69
2022/06/07 07:28:33;;;;;;;10.10;5.63;;;;;;;16.24;88.76;101283.81;5024264;28;20099;-69
2022/06/07 07:31:05;;;;;;;8.85;5.32;;;;;;;16.34;89.57;101287.66;5015481;28;20029;-69
2022/06/07 07:33:31;;;;;;;;;;;;;;;16.52;86.34;101285.63;5016941;28;20112;-70
2022/06/07 07:35:56;;;;;;;12.18;5.88;;;;;;;16.51;85.41;101279.44;5033987;28;19917;-68
2022/06/07 07:38:23;;;;;;;9.48;5.50;;;;;;;16.27;86.93;101283.66;5033777;28;20029;-67
2022/06/07 07:40:51;;;;;;;8.93;5.45;;;;;;;16.36;86.58;101286.59;5027188;28;20488;-68
2022/06/07 07:43:16;;;;;;;11.88;5.40;;;;;;;16.53;85.87;101295.38;5032572;28;20128;-67
2022/06/07 07:45:42;;;;;;;9.70;5.90;;;;;;;16.64;85.61;101292.88;5034302;28;20469;-68
2022/06/07 07:48:07;;;;;;;8.27;5.50;;;;;;;16.92;85.43;101283.13;5017618;28;20029;-69
2022/06/07 07:50:33;;;;;;;12.13;6.10;;;;;;;17.33;84.27;101284.06;5033606;28;20048;-69
2022/06/07 07:52:59;;;;;;;10.98;5.60;;;;;;;17.48;83.84;101291.06;5033563;28;20500;-68
2022/06/07 07:55:25;;;;;;;9.55;5.43;;;;;;;17.64;82.35;101296.25;5033898;28;20366;-67
2022/06/07 07:57:50;;;;;;;12.73;5.80;;;;;;;17.76;80.52;101296.38;5015701;28;20143;-68
2022/06/07 08:00:16;;;;;;;7.65;5.28;;;;;;;17.61;81.07;101300.94;5033138;28;20112;-69
2022/06/07 08:02:42;;;;;;;13.25;6.05;;;;;;;17.38;81.87;101297.13;5033006;28;20029;-68
2022/06/07 08:05:09;;;;;;;8.02;5.53;;;;;;;17.24;81.26;101290.00;5006148;28;20489;-68
2022/06/07 08:07:34;;;;;;;9.50;5.40;;;;;;;17.32;79.88;101298.41;5033355;28;20025;-68
2022/06/07 08:10:02;;;;;;;10.95;5.70;;;;;;;17.36;80.59;101289.19;5033489;28;20036;-69
2022/06/07 08:12:27;;;;;;;10.77;5.40;;;;;;;17.43;80.72;101303.03;5032358;28;20025;-67
2022/06/07 08:14:53;;;;;;;9.52;5.28;;;;;;;17.65;78.57;101308.69;5029195;28;20026;-67
2022/06/07 08:17:18;;;;;;;10.57;5.30;;;;;;;17.89;78.58;101299.06;5027524;28;20449;-67
2022/06/07 08:19:44;;;;;;;9.02;5.78;;;;;;;17.75;76.94;101300.00;5030247;28;20037;-68
2022/06/07 08:22:09;;;;;;;9.75;5.65;;;;;;;17.85;76.20;101293.94;4993995;28;20037;-68
2022/06/07 08:24:36;;;;;;;10.38;5.50;;;;;;;17.95;74.88;101301.38;5029916;28;20076;-68
2022/06/07 08:27:02;;;;;;;9.00;5.97;;;;;;;17.89;75.30;101297.28;5032282;28;20474;-68
2022/06/07 08:29:27;;;;;;;11.75;5.40;;;;;;;17.95;74.18;101285.28;5027853;28;20057;-68
2022/06/07 08:31:52;;;;;;;7.00;4.80;;;;;;;18.21;73.70;101296.00;5030918;28;20059;-69
2022/06/07 08:39:46;;;;;;;10.80;4.70;;;;;;;18.48;70.86;101295.91;5027952;28;20130;-68
2022/06/07 08:42:29;;;;;;;10.90;4.70;;;;;;;18.60;70.41;101289.66;5031635;28;20615;-67
2022/06/07 08:44:59;;;;;;;8.73;4.88;;;;;;;19.05;71.84;101296.34;5033204;28;20036;-68
2022/06/07 08:47:38;;;;;;;8.20;4.90;;;;;;;20.10;65.87;101300.06;5030523;28;20075;-69
2022/06/07 08:50:35;;;;;;;7.13;4.90;;;;;;;19.86;64.13;101302.84;5032491;28;20029;-68
2022/06/07 08:53:10;;;;;;;9.65;5.30;;;;;;;20.04;67.01;101305.06;5030891;28;20084;-69
2022/06/07 08:55:46;;;;;;;8.25;4.80;;;;;;;19.85;66.02;101301.13;5032748;28;20079;-67
2022/06/07 08:58:40;;;;;;;8.35;4.70;;;;;;;19.45;66.04;101302.28;5031347;28;20025;-68
2022/06/07 09:01:27;;;;;;;11.32;5.07;;;;;;;19.73;64.80;101302.00;5030271;28;20033;-68
2022/06/07 09:03:59;;;;;;;7.93;4.80;;;;;;;19.42;67.00;101289.06;5028828;28;20053;-68
2022/06/07 09:06:30;;;;;;;11.50;5.28;;;;;;;19.53;66.52;101303.53;5032537;28;20043;-68
2022/06/07 09:08:58;;;;;;;10.77;5.47;;;;;;;19.86;65.94;101305.53;5031099;28;20025;-68
2022/06/07 09:14:30;;;;;;;8.70;5.00;;;;;;;21.32;61.28;101304.75;5032641;28;20084;-68
2022/06/07 09:16:57;;;;;;;6.97;4.65;;;;;;;22.17;54.78;101290.38;5032509;28;20495;-68
2022/06/07 09:19:26;;;;;;;8.27;5.18;;;;;;;22.16;53.33;101298.59;5019013;28;20060;-68
2022/06/07 09:21:56;;;;;;;8.80;5.55;;;;;;;22.00;56.90;101296.38;5031706;28;20036;-68
2022/06/07 09:24:27;;;;;;;8.68;4.75;;;;;;;21.90;53.98;101294.47;5032449;28;20025;-66
2022/06/07 09:27:02;;;;;;;7.72;4.90;;;;;;;;;;5031971;28;20104;-67
2022/06/07 09:29:34;;;;;;;7.30;4.60;;;;;;;22.31;51.69;101293.72;5031462;28;20440;-68
2022/06/07 09:32:00;;;;;;;8.73;4.55;;;;;;;22.44;49.58;101305.16;5032097;28;20065;-67
2022/06/07 09:34:28;;;;;;;9.32;4.60;;;;;;;21.84;50.47;101284.22;5032187;28;20052;-68
2022/06/07 09:36:59;;;;;;;6.97;4.57;;;;;;;21.88;50.87;101282.97;5031175;28;20484;-65
2022/06/07 09:39:30;;;;;;;10.07;4.05;;;;;;;22.32;51.18;101290.03;5011362;28;20021;-67
2022/06/07 09:42:19;;;;;;;12.85;5.75;;;;;;;23.05;48.80;101300.66;5032379;28;20071;-69
2022/06/07 09:45:14;;;;;;;6.55;4.68;;;;;;;23.43;45.95;101311.69;5031865;28;20075;-67
2022/06/07 09:47:39;;;;;;;11.07;5.22;;;;;;;22.56;46.50;101298.69;5008775;28;20301;-68
2022/06/07 09:50:04;;;;;;;7.97;4.18;;;;;;;22.78;47.53;101301.31;5011162;28;20048;-67
2022/06/07 09:52:42;;;;;;;5.65;4.22;;;;;;;22.52;48.05;101293.69;5030632;28;20359;-68
2022/06/07 09:55:20;;;;;;;12.35;4.85;;;;;;;21.84;49.10;101313.88;5032417;28;20539;-68
2022/06/07 09:58:04;;;;;;;7.32;4.75;;;;;;;21.14;53.39;101299.06;5035263;28;20013;-68
2022/06/07 10:00:39;;;;;;;6.82;4.47;;;;;;;21.26;51.72;101309.66;5034255;28;20361;-68
2022/06/07 10:03:43;;;;;;;8.07;4.88;;;;;;;21.49;50.08;101300.66;5031832;28;20075;-68
2022/06/07 10:06:29;;;;;;;6.70;4.65;;;;;;;20.99;52.21;101302.03;5030990;28;20045;-68
2022/06/07 10:09:22;;;;;;;8.32;5.25;;;;;;;20.34;58.25;101309.88;5031286;28;20029;-68
2022/06/07 10:12:18;;;;;;;9.30;5.13;;;;;;;20.43;59.54;101305.59;5032269;28;20039;-68
2022/06/07 10:15:11;;;;;;;7.90;4.90;;;;;;;20.36;56.54;101307.94;5027636;28;20037;-67
2022/06/07 10:17:49;;;;;;;6.85;5.22;;;;;;;20.55;60.33;101301.94;5031100;28;20521;-68
2022/06/07 10:20:22;;;;;;;7.63;5.40;;;;;;;20.54;58.90;101304.75;5031298;28;20029;-68
2022/06/07 10:23:09;;;;;;;9.20;5.50;;;;;;;20.61;59.70;101301.44;5032740;28;20399;-68
2022/06/07 10:26:04;;;;;;;7.18;5.30;;;;;;;20.33;59.56;101308.16;5027761;28;20025;-68
2022/06/07 10:28:42;;;;;;;8.77;5.40;;;;;;;19.90;61.49;101298.09;5031203;28;20029;-68
2022/06/07 10:31:25;;;;;;;7.70;5.60;;;;;;;19.67;61.22;101287.22;5031989;28;20080;-69
2022/06/07 10:34:31;;;;;;;8.93;5.57;;;;;;;19.50;63.82;101301.91;5016065;28;20040;-68
2022/06/07 10:37:36;;;;;;;7.60;5.78;;;;;;;19.22;66.14;101304.00;5018207;28;20524;-68
2022/06/07 10:40:22;;;;;;;8.18;5.50;;;;;;;19.44;65.62;101297.88;5029581;28;20473;-67
2022/06/07 10:42:59;;;;;;;7.95;5.53;;;;;;;19.62;64.91;101295.63;5030272;28;20041;-68
2022/06/07 10:45:33;;;;;;;10.20;5.88;;;;;;;19.85;63.35;101301.13;5021039;28;20104;-67
2022/06/07 10:48:11;;;;;;;7.65;5.82;;;;;;;19.57;63.15;101294.28;5031758;28;20108;-67
2022/06/07 10:50:40;;;;;;;9.82;7.18;;;;;;;19.41;63.82;101284.69;5001624;28;20079;-68
2022/06/07 10:53:14;;;;;;;8.60;6.13;;;;;;;19.28;65.06;101313.44;5031556;28;20099;-67
2022/06/07 10:55:52;;;;;;;9.23;6.25;;;;;;;19.43;66.15;101312.28;5031552;28;20404;-67
2022/06/07 10:58:20;;;;;;;12.48;6.38;;;;;;;19.22;68.41;101313.88;5031055;28;20021;-67
2022/06/07 11:00:53;;;;;;;8.30;5.55;;;;;;;19.38;68.98;101305.56;5030639;28;20021;-67
2022/06/07 11:04:01;;;;;;;9.00;6.10;;;;;;;19.15;66.14;101300.06;5029661;28;20097;-68
2022/06/07 11:09:36;;;;;;;10.82;6.35;;;;;;;18.76;68.93;101313.56;5031488;28;20072;-68
2022/06/07 11:12:27;;;;;;;9.82;6.65;;;;;;;18.67;68.79;101319.59;5034353;28;20034;-68
2022/06/07 11:15:32;;;;;;;8.57;6.60;;;;;;;18.67;69.18;101319.59;5016046;28;20427;-68
2022/06/07 11:18:10;;;;;;;9.02;6.47;;;;;;;18.79;70.50;101310.66;5011554;28;20037;-67
2022/06/07 11:20:48;;;;;;;10.02;6.72;;;;;;;18.88;69.34;101310.97;5025302;28;20041;-68
2022/06/07 11:23:29;;;;;;;9.45;6.68;;;;;;;18.96;70.31;101324.69;5034345;28;20499;-68
2022/06/07 11:26:13;;;;;;;10.90;6.55;;;;;;;19.04;69.33;101310.72;5023588;28;20033;-68
2022/06/07 11:28:38;;;;;;;10.98;7.20;;;;;;;18.62;70.20;101319.03;5034195;28;20055;-68
2022/06/07 11:31:41;;;;;;;11.07;7.10;;;;;;;18.78;70.50;101319.66;5035267;28;20029;-67
2022/06/07 11:34:31;;;;;;;10.25;6.63;;;;;;;18.88;70.91;101317.19;5034166;28;20030;-67
2022/06/07 11:37:08;;;;;;;9.35;6.85;;;;;;;18.84;71.44;101319.22;5026760;28;20037;-67
2022/06/07 11:39:40;;;;;;;11.20;7.18;;;;;;;18.69;71.23;101319.47;5033907;28;20401;-67
2022/06/07 11:42:11;;;;;;;9.77;6.53;;;;;;;18.67;72.69;101316.91;5033159;28;20485;-66
2022/06/07 11:44:36;;;;;;;10.43;6.95;;;;;;;18.41;71.96;101313.38;5022495;28;20420;-66
2022/06/07 11:47:11;;;;;;;11.85;7.05;;;;;;;18.42;73.18;101325.84;5034508;28;20028;-69
2022/06/07 11:49:40;;;;;;;9.80;6.65;;;;;;;18.41;72.45;101308.88;5034433;28;20029;-68
2022/06/07 11:52:11;;;;;;;10.25;6.82;;;;;;;18.49;72.64;101309.22;5042134;28;20500;-68
2022/06/07 11:54:46;;;;;;;10.40;6.90;;;;;;;18.73;71.01;101302.19;5033530;28;20430;-68